Terminal Aerodrome Forecast
Issued by NWS Charleston, SC

Home | Current Version | Previous Version | Text Only | Print | Product List | Glossary On
Versions: 1 2 3 4 5 6 7 8 9 10 11 12 13 14 15
000
FTUS42 KCHS 251726
TAFCHS
TAF
KCHS 251726Z 2518/2618 VRB05KT P6SM SCT050
     FM251830 18010KT P6SM SCT060
     FM260400 VRB04KT P6SM FEW050=

USA.gov is the U.S. government's official web portal to all federal, state and local government web resources and services.